sensor_id;sensor_type;location;lat;lon;timestamp;P1;durP1;ratioP1;P2;durP2;ratioP2
45420;SDS011;55462;47.042;8.292;2023-10-19T00:01:42;20.08;;;17.98;;
45420;SDS011;55462;47.042;8.292;2023-10-19T00:04:07;18.60;;;16.73;;
45420;SDS011;55462;47.042;8.292;2023-10-19T00:06:34;18.48;;;16.50;;
45420;SDS011;55462;47.042;8.292;2023-10-19T00:08:59;20.63;;;18.48;;
45420;SDS011;55462;47.042;8.292;2023-10-19T00:11:24;22.05;;;19.65;;
45420;SDS011;55462;47.042;8.292;2023-10-19T00:13:51;19.88;;;17.88;;
45420;SDS011;55462;47.042;8.292;2023-10-19T00:16:19;18.98;;;17.10;;
45420;SDS011;55462;47.042;8.292;2023-10-19T00:18:47;19.02;;;17.30;;
45420;SDS011;55462;47.042;8.292;2023-10-19T00:21:17;19.92;;;17.30;;
45420;SDS011;55462;47.042;8.292;2023-10-19T00:23:51;18.35;;;16.63;;
45420;SDS011;55462;47.042;8.292;2023-10-19T00:26:26;23.85;;;17.45;;
45420;SDS011;55462;47.042;8.292;2023-10-19T00:28:54;18.42;;;16.02;;
45420;SDS011;55462;47.042;8.292;2023-10-19T00:31:26;17.67;;;16.08;;
45420;SDS011;55462;47.042;8.292;2023-10-19T00:33:52;15.77;;;14.20;;
45420;SDS011;55462;47.042;8.292;2023-10-19T00:36:19;15.48;;;14.07;;
45420;SDS011;55462;47.042;8.292;2023-10-19T00:38:48;14.55;;;13.10;;
45420;SDS011;55462;47.042;8.292;2023-10-19T00:41:20;17.35;;;15.75;;
45420;SDS011;55462;47.042;8.292;2023-10-19T00:43:49;19.30;;;17.45;;
45420;SDS011;55462;47.042;8.292;2023-10-19T00:46:16;19.15;;;17.35;;
45420;SDS011;55462;47.042;8.292;2023-10-19T00:48:45;18.33;;;16.50;;
45420;SDS011;55462;47.042;8.292;2023-10-19T00:51:14;18.65;;;16.75;;
45420;SDS011;55462;47.042;8.292;2023-10-19T00:54:16;22.38;;;16.98;;
45420;SDS011;55462;47.042;8.292;2023-10-19T00:56:51;19.75;;;17.70;;
45420;SDS011;55462;47.042;8.292;2023-10-19T00:59:17;18.60;;;16.73;;
45420;SDS011;55462;47.042;8.292;2023-10-19T01:01:53;17.67;;;15.88;;
45420;SDS011;55462;47.042;8.292;2023-10-19T01:04:21;18.67;;;16.88;;
45420;SDS011;55462;47.042;8.292;2023-10-19T01:06:59;17.50;;;15.77;;
45420;SDS011;55462;47.042;8.292;2023-10-19T01:09:32;16.67;;;15.18;;
45420;SDS011;55462;47.042;8.292;2023-10-19T01:12:04;16.65;;;15.02;;
45420;SDS011;55462;47.042;8.292;2023-10-19T01:15:22;15.88;;;14.32;;
45420;SDS011;55462;47.042;8.292;2023-10-19T01:17:45;15.15;;;13.75;;
45420;SDS011;55462;47.042;8.292;2023-10-19T01:20:17;16.52;;;14.82;;
45420;SDS011;55462;47.042;8.292;2023-10-19T01:23:03;14.98;;;13.48;;
45420;SDS011;55462;47.042;8.292;2023-10-19T01:25:54;19.00;;;14.52;;
45420;SDS011;55462;47.042;8.292;2023-10-19T01:28:34;17.85;;;15.98;;
45420;SDS011;55462;47.042;8.292;2023-10-19T01:31:27;17.15;;;15.55;;
45420;SDS011;55462;47.042;8.292;2023-10-19T01:33:56;16.92;;;15.25;;
45420;SDS011;55462;47.042;8.292;2023-10-19T01:36:23;17.25;;;15.48;;
45420;SDS011;55462;47.042;8.292;2023-10-19T01:38:49;19.30;;;16.73;;
45420;SDS011;55462;47.042;8.292;2023-10-19T01:41:14;17.30;;;15.80;;
45420;SDS011;55462;47.042;8.292;2023-10-19T01:43:43;18.38;;;16.50;;
45420;SDS011;55462;47.042;8.292;2023-10-19T01:46:13;17.08;;;14.73;;
45420;SDS011;55462;47.042;8.292;2023-10-19T01:48:46;16.88;;;15.15;;
45420;SDS011;55462;47.042;8.292;2023-10-19T01:51:14;16.85;;;15.30;;
45420;SDS011;55462;47.042;8.292;2023-10-19T01:53:40;16.92;;;15.23;;
45420;SDS011;55462;47.042;8.292;2023-10-19T01:56:08;15.13;;;13.70;;
45420;SDS011;55462;47.042;8.292;2023-10-19T01:58:37;16.48;;;14.80;;
45420;SDS011;55462;47.042;8.292;2023-10-19T02:01:05;17.42;;;15.70;;
45420;SDS011;55462;47.042;8.292;2023-10-19T02:03:36;17.42;;;15.80;;
45420;SDS011;55462;47.042;8.292;2023-10-19T02:06:02;17.02;;;15.30;;
45420;SDS011;55462;47.042;8.292;2023-10-19T02:08:36;16.20;;;14.60;;
45420;SDS011;55462;47.042;8.292;2023-10-19T02:11:04;17.58;;;15.93;;
45420;SDS011;55462;47.042;8.292;2023-10-19T02:13:38;16.10;;;14.70;;
45420;SDS011;55462;47.042;8.292;2023-10-19T02:16:04;16.05;;;14.57;;
45420;SDS011;55462;47.042;8.292;2023-10-19T02:18:31;15.50;;;13.90;;
45420;SDS011;55462;47.042;8.292;2023-10-19T02:20:59;14.10;;;12.77;;
45420;SDS011;55462;47.042;8.292;2023-10-19T02:23:27;14.77;;;13.30;;
45420;SDS011;55462;47.042;8.292;2023-10-19T02:25:52;12.95;;;11.75;;
45420;SDS011;55462;47.042;8.292;2023-10-19T02:28:18;13.45;;;12.07;;
45420;SDS011;55462;47.042;8.292;2023-10-19T02:30:51;14.35;;;13.10;;
45420;SDS011;55462;47.042;8.292;2023-10-19T02:33:16;17.02;;;14.25;;
45420;SDS011;55462;47.042;8.292;2023-10-19T02:35:42;13.00;;;11.75;;
45420;SDS011;55462;47.042;8.292;2023-10-19T02:38:07;18.10;;;13.80;;
45420;SDS011;55462;47.042;8.292;2023-10-19T02:40:33;15.40;;;13.95;;
45420;SDS011;55462;47.042;8.292;2023-10-19T02:43:01;14.82;;;13.30;;
45420;SDS011;55462;47.042;8.292;2023-10-19T02:45:28;15.85;;;14.35;;
45420;SDS011;55462;47.042;8.292;2023-10-19T02:47:56;15.27;;;13.77;;
45420;SDS011;55462;47.042;8.292;2023-10-19T02:50:23;17.52;;;15.77;;
45420;SDS011;55462;47.042;8.292;2023-10-19T02:52:51;17.83;;;16.20;;
45420;SDS011;55462;47.042;8.292;2023-10-19T02:55:17;17.05;;;15.25;;
45420;SDS011;55462;47.042;8.292;2023-10-19T02:57:42;18.58;;;16.60;;
45420;SDS011;55462;47.042;8.292;2023-10-19T03:00:11;18.52;;;16.55;;
45420;SDS011;55462;47.042;8.292;2023-10-19T03:02:39;19.92;;;16.90;;
45420;SDS011;55462;47.042;8.292;2023-10-19T03:05:05;18.05;;;16.25;;
45420;SDS011;55462;47.042;8.292;2023-10-19T03:07:38;19.30;;;17.05;;
45420;SDS011;55462;47.042;8.292;2023-10-19T03:10:05;19.67;;;17.67;;
45420;SDS011;55462;47.042;8.292;2023-10-19T03:12:34;18.73;;;16.95;;
45420;SDS011;55462;47.042;8.292;2023-10-19T03:15:01;18.42;;;16.70;;
45420;SDS011;55462;47.042;8.292;2023-10-19T03:17:26;18.10;;;15.55;;
45420;SDS011;55462;47.042;8.292;2023-10-19T03:19:54;17.73;;;15.32;;
45420;SDS011;55462;47.042;8.292;2023-10-19T03:22:20;19.38;;;17.48;;
45420;SDS011;55462;47.042;8.292;2023-10-19T03:24:45;18.77;;;17.10;;
45420;SDS011;55462;47.042;8.292;2023-10-19T03:27:12;19.40;;;17.30;;
45420;SDS011;55462;47.042;8.292;2023-10-19T03:29:41;15.90;;;14.18;;
45420;SDS011;55462;47.042;8.292;2023-10-19T03:32:10;17.20;;;15.48;;
45420;SDS011;55462;47.042;8.292;2023-10-19T03:34:37;15.77;;;14.18;;
45420;SDS011;55462;47.042;8.292;2023-10-19T03:37:03;15.63;;;14.13;;
45420;SDS011;55462;47.042;8.292;2023-10-19T03:39:35;17.25;;;15.15;;
45420;SDS011;55462;47.042;8.292;2023-10-19T03:42:04;15.48;;;13.98;;
45420;SDS011;55462;47.042;8.292;2023-10-19T03:44:31;17.27;;;15.57;;
45420;SDS011;55462;47.042;8.292;2023-10-19T03:47:09;17.58;;;15.77;;
45420;SDS011;55462;47.042;8.292;2023-10-19T03:49:39;16.20;;;14.70;;
45420;SDS011;55462;47.042;8.292;2023-10-19T03:52:06;17.65;;;15.88;;
45420;SDS011;55462;47.042;8.292;2023-10-19T03:54:35;17.27;;;15.70;;
45420;SDS011;55462;47.042;8.292;2023-10-19T03:57:10;18.15;;;16.23;;
45420;SDS011;55462;47.042;8.292;2023-10-19T03:59:40;16.80;;;15.18;;
45420;SDS011;55462;47.042;8.292;2023-10-19T04:02:09;15.60;;;14.10;;
45420;SDS011;55462;47.042;8.292;2023-10-19T04:04:37;15.80;;;14.27;;
45420;SDS011;55462;47.042;8.292;2023-10-19T04:07:04;16.90;;;15.07;;
45420;SDS011;55462;47.042;8.292;2023-10-19T04:09:36;19.30;;;17.35;;
45420;SDS011;55462;47.042;8.292;2023-10-19T04:12:21;17.30;;;15.60;;
45420;SDS011;55462;47.042;8.292;2023-10-19T04:14:47;18.75;;;16.95;;
45420;SDS011;55462;47.042;8.292;2023-10-19T04:17:13;19.17;;;16.77;;
45420;SDS011;55462;47.042;8.292;2023-10-19T04:19:38;18.23;;;16.52;;
45420;SDS011;55462;47.042;8.292;2023-10-19T04:22:04;19.40;;;17.40;;
45420;SDS011;55462;47.042;8.292;2023-10-19T04:24:29;18.85;;;16.85;;
45420;SDS011;55462;47.042;8.292;2023-10-19T04:26:58;18.45;;;16.85;;
45420;SDS011;55462;47.042;8.292;2023-10-19T04:29:24;18.67;;;16.52;;
45420;SDS011;55462;47.042;8.292;2023-10-19T04:31:52;21.45;;;19.27;;
45420;SDS011;55462;47.042;8.292;2023-10-19T04:34:21;20.15;;;18.00;;
45420;SDS011;55462;47.042;8.292;2023-10-19T04:36:52;19.60;;;17.67;;
45420;SDS011;55462;47.042;8.292;2023-10-19T04:39:18;17.63;;;15.82;;
45420;SDS011;55462;47.042;8.292;2023-10-19T04:41:44;19.33;;;16.45;;
45420;SDS011;55462;47.042;8.292;2023-10-19T04:44:10;18.45;;;16.70;;
45420;SDS011;55462;47.042;8.292;2023-10-19T04:46:35;16.15;;;14.65;;
45420;SDS011;55462;47.042;8.292;2023-10-19T04:49:01;17.67;;;15.98;;
45420;SDS011;55462;47.042;8.292;2023-10-19T04:51:28;16.63;;;14.93;;
45420;SDS011;55462;47.042;8.292;2023-10-19T04:53:54;17.35;;;15.65;;
45420;SDS011;55462;47.042;8.292;2023-10-19T04:56:20;18.20;;;16.33;;
45420;SDS011;55462;47.042;8.292;2023-10-19T04:58:45;19.95;;;16.40;;
45420;SDS011;55462;47.042;8.292;2023-10-19T05:01:12;18.25;;;16.40;;
45420;SDS011;55462;47.042;8.292;2023-10-19T05:03:37;18.17;;;16.48;;
45420;SDS011;55462;47.042;8.292;2023-10-19T05:06:03;18.27;;;16.65;;
45420;SDS011;55462;47.042;8.292;2023-10-19T05:08:28;17.42;;;15.75;;
45420;SDS011;55462;47.042;8.292;2023-10-19T05:10:55;15.70;;;14.30;;
45420;SDS011;55462;47.042;8.292;2023-10-19T05:13:21;19.75;;;17.65;;
45420;SDS011;55462;47.042;8.292;2023-10-19T05:15:48;18.15;;;16.48;;
45420;SDS011;55462;47.042;8.292;2023-10-19T05:18:13;20.05;;;18.05;;
45420;SDS011;55462;47.042;8.292;2023-10-19T05:20:39;17.27;;;15.70;;
45420;SDS011;55462;47.042;8.292;2023-10-19T05:23:06;18.13;;;14.70;;
45420;SDS011;55462;47.042;8.292;2023-10-19T05:25:35;16.50;;;14.85;;
45420;SDS011;55462;47.042;8.292;2023-10-19T05:28:09;15.85;;;14.45;;
45420;SDS011;55462;47.042;8.292;2023-10-19T05:30:35;16.88;;;14.23;;
45420;SDS011;55462;47.042;8.292;2023-10-19T05:33:00;17.83;;;15.95;;
45420;SDS011;55462;47.042;8.292;2023-10-19T05:35:28;19.98;;;15.43;;
45420;SDS011;55462;47.042;8.292;2023-10-19T05:37:54;18.40;;;16.67;;
45420;SDS011;55462;47.042;8.292;2023-10-19T05:40:23;16.75;;;15.05;;
45420;SDS011;55462;47.042;8.292;2023-10-19T05:42:54;14.38;;;13.00;;
45420;SDS011;55462;47.042;8.292;2023-10-19T05:45:19;16.00;;;14.10;;
45420;SDS011;55462;47.042;8.292;2023-10-19T05:47:45;15.02;;;13.48;;
45420;SDS011;55462;47.042;8.292;2023-10-19T05:50:10;15.05;;;13.68;;
45420;SDS011;55462;47.042;8.292;2023-10-19T05:52:39;16.13;;;14.27;;
45420;SDS011;55462;47.042;8.292;2023-10-19T05:55:08;15.68;;;14.07;;
45420;SDS011;55462;47.042;8.292;2023-10-19T05:57:35;14.88;;;13.38;;
45420;SDS011;55462;47.042;8.292;2023-10-19T06:00:08;17.20;;;15.48;;
45420;SDS011;55462;47.042;8.292;2023-10-19T06:02:45;18.05;;;16.13;;
45420;SDS011;55462;47.042;8.292;2023-10-19T06:05:12;18.17;;;16.30;;
45420;SDS011;55462;47.042;8.292;2023-10-19T06:07:38;16.92;;;15.13;;
45420;SDS011;55462;47.042;8.292;2023-10-19T06:10:04;15.98;;;14.38;;
45420;SDS011;55462;47.042;8.292;2023-10-19T06:12:31;17.38;;;15.45;;
45420;SDS011;55462;47.042;8.292;2023-10-19T06:14:57;17.70;;;15.02;;
45420;SDS011;55462;47.042;8.292;2023-10-19T06:17:22;18.42;;;16.63;;
45420;SDS011;55462;47.042;8.292;2023-10-19T06:19:48;18.55;;;16.75;;
45420;SDS011;55462;47.042;8.292;2023-10-19T06:22:14;18.05;;;16.25;;
45420;SDS011;55462;47.042;8.292;2023-10-19T06:24:41;18.27;;;16.50;;
45420;SDS011;55462;47.042;8.292;2023-10-19T06:27:06;16.63;;;15.00;;
45420;SDS011;55462;47.042;8.292;2023-10-19T06:29:31;18.38;;;16.25;;
45420;SDS011;55462;47.042;8.292;2023-10-19T06:31:57;17.77;;;15.98;;
45420;SDS011;55462;47.042;8.292;2023-10-19T06:34:22;18.08;;;16.33;;
45420;SDS011;55462;47.042;8.292;2023-10-19T06:36:48;17.70;;;16.10;;
45420;SDS011;55462;47.042;8.292;2023-10-19T06:39:13;18.27;;;16.58;;
45420;SDS011;55462;47.042;8.292;2023-10-19T06:41:38;16.20;;;14.50;;
45420;SDS011;55462;47.042;8.292;2023-10-19T06:44:04;17.92;;;15.13;;
45420;SDS011;55462;47.042;8.292;2023-10-19T06:46:30;16.83;;;14.77;;
45420;SDS011;55462;47.042;8.292;2023-10-19T06:48:56;15.60;;;14.20;;
45420;SDS011;55462;47.042;8.292;2023-10-19T06:51:25;15.05;;;13.57;;
45420;SDS011;55462;47.042;8.292;2023-10-19T06:53:51;14.40;;;13.20;;
45420;SDS011;55462;47.042;8.292;2023-10-19T06:56:17;14.82;;;13.13;;
45420;SDS011;55462;47.042;8.292;2023-10-19T06:58:42;15.13;;;13.73;;
45420;SDS011;55462;47.042;8.292;2023-10-19T07:01:08;15.27;;;13.07;;
45420;SDS011;55462;47.042;8.292;2023-10-19T07:03:33;13.63;;;12.43;;
45420;SDS011;55462;47.042;8.292;2023-10-19T07:06:01;14.13;;;12.68;;
45420;SDS011;55462;47.042;8.292;2023-10-19T07:08:27;11.90;;;10.85;;
45420;SDS011;55462;47.042;8.292;2023-10-19T07:10:53;12.65;;;11.32;;
45420;SDS011;55462;47.042;8.292;2023-10-19T07:13:18;12.18;;;10.65;;
45420;SDS011;55462;47.042;8.292;2023-10-19T07:15:45;14.32;;;13.02;;
45420;SDS011;55462;47.042;8.292;2023-10-19T07:18:11;12.20;;;11.10;;
45420;SDS011;55462;47.042;8.292;2023-10-19T07:20:36;13.15;;;11.95;;
45420;SDS011;55462;47.042;8.292;2023-10-19T07:23:03;13.90;;;12.38;;
45420;SDS011;55462;47.042;8.292;2023-10-19T07:25:35;16.20;;;14.50;;
45420;SDS011;55462;47.042;8.292;2023-10-19T07:28:12;19.50;;;15.02;;
45420;SDS011;55462;47.042;8.292;2023-10-19T07:30:38;16.63;;;13.63;;
45420;SDS011;55462;47.042;8.292;2023-10-19T07:33:04;15.32;;;13.82;;
45420;SDS011;55462;47.042;8.292;2023-10-19T07:35:33;15.13;;;13.65;;
45420;SDS011;55462;47.042;8.292;2023-10-19T07:37:59;15.57;;;13.90;;
45420;SDS011;55462;47.042;8.292;2023-10-19T07:40:24;14.70;;;13.05;;
45420;SDS011;55462;47.042;8.292;2023-10-19T07:42:50;13.95;;;12.60;;
45420;SDS011;55462;47.042;8.292;2023-10-19T07:45:17;14.10;;;12.77;;
45420;SDS011;55462;47.042;8.292;2023-10-19T07:47:43;13.32;;;11.82;;
45420;SDS011;55462;47.042;8.292;2023-10-19T07:50:10;15.50;;;13.85;;
45420;SDS011;55462;47.042;8.292;2023-10-19T07:52:40;14.07;;;12.50;;
45420;SDS011;55462;47.042;8.292;2023-10-19T07:55:10;14.68;;;12.90;;
45420;SDS011;55462;47.042;8.292;2023-10-19T07:57:35;15.55;;;12.93;;
45420;SDS011;55462;47.042;8.292;2023-10-19T08:00:01;15.43;;;13.88;;
45420;SDS011;55462;47.042;8.292;2023-10-19T08:02:28;16.33;;;14.65;;
45420;SDS011;55462;47.042;8.292;2023-10-19T08:04:54;15.07;;;13.55;;
45420;SDS011;55462;47.042;8.292;2023-10-19T08:07:20;15.95;;;14.38;;
45420;SDS011;55462;47.042;8.292;2023-10-19T08:09:46;14.68;;;13.38;;
45420;SDS011;55462;47.042;8.292;2023-10-19T08:12:11;16.15;;;14.50;;
45420;SDS011;55462;47.042;8.292;2023-10-19T08:14:38;14.68;;;13.15;;
45420;SDS011;55462;47.042;8.292;2023-10-19T08:17:04;14.75;;;13.25;;
45420;SDS011;55462;47.042;8.292;2023-10-19T08:19:29;15.45;;;13.88;;
45420;SDS011;55462;47.042;8.292;2023-10-19T08:21:56;15.75;;;14.10;;
45420;SDS011;55462;47.042;8.292;2023-10-19T08:24:22;15.52;;;13.07;;
45420;SDS011;55462;47.042;8.292;2023-10-19T08:26:48;15.57;;;13.70;;
45420;SDS011;55462;47.042;8.292;2023-10-19T08:29:14;16.15;;;13.13;;
45420;SDS011;55462;47.042;8.292;2023-10-19T08:31:40;14.60;;;13.00;;
45420;SDS011;55462;47.042;8.292;2023-10-19T08:34:06;14.50;;;13.02;;
45420;SDS011;55462;47.042;8.292;2023-10-19T08:36:34;14.75;;;13.35;;
45420;SDS011;55462;47.042;8.292;2023-10-19T08:39:00;15.60;;;13.95;;
45420;SDS011;55462;47.042;8.292;2023-10-19T08:41:30;15.93;;;12.02;;
45420;SDS011;55462;47.042;8.292;2023-10-19T08:43:56;13.77;;;12.32;;
45420;SDS011;55462;47.042;8.292;2023-10-19T08:46:22;16.15;;;13.00;;
45420;SDS011;55462;47.042;8.292;2023-10-19T08:48:49;14.27;;;12.65;;
45420;SDS011;55462;47.042;8.292;2023-10-19T08:51:15;15.50;;;12.25;;
45420;SDS011;55462;47.042;8.292;2023-10-19T08:53:42;14.95;;;12.35;;
45420;SDS011;55462;47.042;8.292;2023-10-19T08:56:09;16.25;;;11.95;;
45420;SDS011;55462;47.042;8.292;2023-10-19T08:58:34;16.23;;;11.63;;
45420;SDS011;55462;47.042;8.292;2023-10-19T09:01:01;21.27;;;12.25;;
45420;SDS011;55462;47.042;8.292;2023-10-19T09:03:31;12.73;;;11.43;;
45420;SDS011;55462;47.042;8.292;2023-10-19T09:06:00;12.57;;;11.38;;
45420;SDS011;55462;47.042;8.292;2023-10-19T09:08:26;11.95;;;10.52;;
45420;SDS011;55462;47.042;8.292;2023-10-19T09:11:05;10.80;;;9.13;;
45420;SDS011;55462;47.042;8.292;2023-10-19T09:13:52;11.07;;;9.93;;
45420;SDS011;55462;47.042;8.292;2023-10-19T09:16:18;11.43;;;10.43;;
45420;SDS011;55462;47.042;8.292;2023-10-19T09:18:46;10.90;;;9.98;;
45420;SDS011;55462;47.042;8.292;2023-10-19T09:21:16;13.25;;;11.05;;
45420;SDS011;55462;47.042;8.292;2023-10-19T09:23:52;10.38;;;9.43;;
45420;SDS011;55462;47.042;8.292;2023-10-19T09:26:18;12.02;;;10.52;;
45420;SDS011;55462;47.042;8.292;2023-10-19T09:28:45;11.05;;;10.02;;
45420;SDS011;55462;47.042;8.292;2023-10-19T09:31:15;9.60;;;8.73;;
45420;SDS011;55462;47.042;8.292;2023-10-19T09:33:45;15.07;;;9.50;;
45420;SDS011;55462;47.042;8.292;2023-10-19T09:36:11;9.35;;;8.45;;
45420;SDS011;55462;47.042;8.292;2023-10-19T09:38:44;9.02;;;8.20;;
45420;SDS011;55462;47.042;8.292;2023-10-19T09:41:22;10.13;;;8.75;;
45420;SDS011;55462;47.042;8.292;2023-10-19T09:43:48;8.85;;;8.02;;
45420;SDS011;55462;47.042;8.292;2023-10-19T09:46:21;10.25;;;8.95;;
45420;SDS011;55462;47.042;8.292;2023-10-19T09:48:48;9.82;;;8.75;;
45420;SDS011;55462;47.042;8.292;2023-10-19T09:51:14;12.70;;;8.93;;
45420;SDS011;55462;47.042;8.292;2023-10-19T09:53:41;12.90;;;8.73;;
45420;SDS011;55462;47.042;8.292;2023-10-19T09:56:08;9.95;;;9.02;;
45420;SDS011;55462;47.042;8.292;2023-10-19T09:58:45;12.63;;;8.93;;
45420;SDS011;55462;47.042;8.292;2023-10-19T10:01:13;8.60;;;7.80;;
45420;SDS011;55462;47.042;8.292;2023-10-19T10:03:42;9.45;;;8.45;;
45420;SDS011;55462;47.042;8.292;2023-10-19T10:06:12;11.88;;;10.77;;
45420;SDS011;55462;47.042;8.292;2023-10-19T10:08:45;10.50;;;9.60;;
45420;SDS011;55462;47.042;8.292;2023-10-19T10:11:20;12.48;;;11.23;;
45420;SDS011;55462;47.042;8.292;2023-10-19T10:13:49;11.68;;;9.88;;
45420;SDS011;55462;47.042;8.292;2023-10-19T10:16:27;12.95;;;10.15;;
45420;SDS011;55462;47.042;8.292;2023-10-19T10:19:02;10.15;;;9.18;;
45420;SDS011;55462;47.042;8.292;2023-10-19T10:21:29;11.15;;;10.23;;
45420;SDS011;55462;47.042;8.292;2023-10-19T10:23:56;11.13;;;10.23;;
45420;SDS011;55462;47.042;8.292;2023-10-19T10:26:27;10.18;;;9.23;;
45420;SDS011;55462;47.042;8.292;2023-10-19T10:29:11;11.80;;;9.00;;
45420;SDS011;55462;47.042;8.292;2023-10-19T10:31:44;11.75;;;9.55;;
45420;SDS011;55462;47.042;8.292;2023-10-19T10:34:11;7.30;;;6.60;;
45420;SDS011;55462;47.042;8.292;2023-10-19T10:39:27;9.80;;;7.22;;
45420;SDS011;55462;47.042;8.292;2023-10-19T10:41:56;9.02;;;7.45;;
45420;SDS011;55462;47.042;8.292;2023-10-19T10:44:35;10.43;;;8.05;;
45420;SDS011;55462;47.042;8.292;2023-10-19T10:47:11;7.85;;;7.22;;
45420;SDS011;55462;47.042;8.292;2023-10-19T10:50:01;9.30;;;7.75;;
45420;SDS011;55462;47.042;8.292;2023-10-19T10:52:27;9.25;;;8.10;;
45420;SDS011;55462;47.042;8.292;2023-10-19T10:54:54;10.13;;;7.28;;
45420;SDS011;55462;47.042;8.292;2023-10-19T10:57:20;9.80;;;8.45;;
45420;SDS011;55462;47.042;8.292;2023-10-19T10:59:45;10.10;;;9.13;;
45420;SDS011;55462;47.042;8.292;2023-10-19T11:02:20;10.10;;;9.05;;
45420;SDS011;55462;47.042;8.292;2023-10-19T11:04:47;9.70;;;8.65;;
45420;SDS011;55462;47.042;8.292;2023-10-19T11:07:19;9.95;;;8.77;;
45420;SDS011;55462;47.042;8.292;2023-10-19T11:09:45;9.77;;;8.77;;
45420;SDS011;55462;47.042;8.292;2023-10-19T11:12:11;9.88;;;8.98;;
45420;SDS011;55462;47.042;8.292;2023-10-19T11:14:37;9.85;;;9.02;;
45420;SDS011;55462;47.042;8.292;2023-10-19T11:17:12;11.45;;;9.98;;
45420;SDS011;55462;47.042;8.292;2023-10-19T11:19:41;11.65;;;10.13;;
45420;SDS011;55462;47.042;8.292;2023-10-19T11:22:09;13.50;;;10.73;;
45420;SDS011;55462;47.042;8.292;2023-10-19T11:24:35;11.32;;;10.20;;
45420;SDS011;55462;47.042;8.292;2023-10-19T11:27:05;11.30;;;10.18;;
45420;SDS011;55462;47.042;8.292;2023-10-19T11:29:32;12.35;;;11.27;;
45420;SDS011;55462;47.042;8.292;2023-10-19T11:31:59;11.27;;;9.93;;
45420;SDS011;55462;47.042;8.292;2023-10-19T11:34:25;11.95;;;10.82;;
45420;SDS011;55462;47.042;8.292;2023-10-19T11:36:53;12.15;;;11.05;;
45420;SDS011;55462;47.042;8.292;2023-10-19T11:39:24;11.00;;;10.00;;
45420;SDS011;55462;47.042;8.292;2023-10-19T11:41:50;11.23;;;10.23;;
45420;SDS011;55462;47.042;8.292;2023-10-19T11:44:15;11.30;;;10.25;;
45420;SDS011;55462;47.042;8.292;2023-10-19T11:46:40;11.05;;;10.05;;
45420;SDS011;55462;47.042;8.292;2023-10-19T11:49:06;11.23;;;10.13;;
45420;SDS011;55462;47.042;8.292;2023-10-19T11:51:31;13.27;;;10.32;;
45420;SDS011;55462;47.042;8.292;2023-10-19T11:53:56;11.20;;;10.18;;
45420;SDS011;55462;47.042;8.292;2023-10-19T11:56:24;10.55;;;9.57;;
45420;SDS011;55462;47.042;8.292;2023-10-19T11:58:50;12.02;;;10.10;;
45420;SDS011;55462;47.042;8.292;2023-10-19T12:01:15;10.57;;;9.68;;
45420;SDS011;55462;47.042;8.292;2023-10-19T12:03:41;11.43;;;9.57;;
45420;SDS011;55462;47.042;8.292;2023-10-19T12:06:10;12.25;;;9.90;;
45420;SDS011;55462;47.042;8.292;2023-10-19T12:08:37;10.68;;;9.38;;
45420;SDS011;55462;47.042;8.292;2023-10-19T12:11:03;11.23;;;9.52;;
45420;SDS011;55462;47.042;8.292;2023-10-19T12:13:30;9.93;;;8.93;;
45420;SDS011;55462;47.042;8.292;2023-10-19T12:15:56;10.77;;;9.48;;
45420;SDS011;55462;47.042;8.292;2023-10-19T12:18:22;10.82;;;9.80;;
45420;SDS011;55462;47.042;8.292;2023-10-19T12:20:48;11.43;;;10.38;;
45420;SDS011;55462;47.042;8.292;2023-10-19T12:23:14;12.70;;;10.05;;
45420;SDS011;55462;47.042;8.292;2023-10-19T12:25:39;9.55;;;8.52;;
45420;SDS011;55462;47.042;8.292;2023-10-19T12:28:07;10.57;;;9.68;;
45420;SDS011;55462;47.042;8.292;2023-10-19T12:30:32;11.32;;;10.32;;
45420;SDS011;55462;47.042;8.292;2023-10-19T12:33:01;15.48;;;9.55;;
45420;SDS011;55462;47.042;8.292;2023-10-19T12:35:36;10.60;;;9.55;;
45420;SDS011;55462;47.042;8.292;2023-10-19T12:38:17;9.07;;;8.18;;
45420;SDS011;55462;47.042;8.292;2023-10-19T12:40:46;9.45;;;8.55;;
45420;SDS011;55462;47.042;8.292;2023-10-19T12:43:12;9.88;;;8.98;;
45420;SDS011;55462;47.042;8.292;2023-10-19T12:45:43;9.18;;;8.30;;
45420;SDS011;55462;47.042;8.292;2023-10-19T12:48:09;10.48;;;9.10;;
45420;SDS011;55462;47.042;8.292;2023-10-19T12:50:36;9.00;;;8.10;;
45420;SDS011;55462;47.042;8.292;2023-10-19T12:53:02;8.07;;;7.45;;
45420;SDS011;55462;47.042;8.292;2023-10-19T12:55:28;8.40;;;7.57;;
45420;SDS011;55462;47.042;8.292;2023-10-19T12:57:55;8.02;;;7.30;;
45420;SDS011;55462;47.042;8.292;2023-10-19T13:00:22;9.98;;;7.90;;
45420;SDS011;55462;47.042;8.292;2023-10-19T13:03:01;7.93;;;5.88;;
45420;SDS011;55462;47.042;8.292;2023-10-19T13:05:34;7.32;;;6.43;;
45420;SDS011;55462;47.042;8.292;2023-10-19T13:08:00;6.70;;;6.00;;
45420;SDS011;55462;47.042;8.292;2023-10-19T13:10:29;7.22;;;6.63;;
45420;SDS011;55462;47.042;8.292;2023-10-19T13:13:01;7.05;;;6.35;;
45420;SDS011;55462;47.042;8.292;2023-10-19T13:15:29;9.23;;;6.70;;
45420;SDS011;55462;47.042;8.292;2023-10-19T13:18:01;8.00;;;7.10;;
45420;SDS011;55462;47.042;8.292;2023-10-19T13:20:27;8.77;;;7.90;;
45420;SDS011;55462;47.042;8.292;2023-10-19T13:22:58;9.30;;;8.07;;
45420;SDS011;55462;47.042;8.292;2023-10-19T13:25:24;9.07;;;8.13;;
45420;SDS011;55462;47.042;8.292;2023-10-19T13:28:07;9.02;;;8.13;;
45420;SDS011;55462;47.042;8.292;2023-10-19T13:30:40;9.38;;;8.48;;
45420;SDS011;55462;47.042;8.292;2023-10-19T13:33:06;8.05;;;7.45;;
45420;SDS011;55462;47.042;8.292;2023-10-19T13:35:34;9.30;;;8.48;;
45420;SDS011;55462;47.042;8.292;2023-10-19T13:37:59;8.20;;;7.50;;
45420;SDS011;55462;47.042;8.292;2023-10-19T13:40:26;8.00;;;7.28;;
45420;SDS011;55462;47.042;8.292;2023-10-19T13:42:55;7.40;;;6.70;;
45420;SDS011;55462;47.042;8.292;2023-10-19T13:45:21;8.45;;;7.60;;
45420;SDS011;55462;47.042;8.292;2023-10-19T13:47:46;8.95;;;6.93;;
45420;SDS011;55462;47.042;8.292;2023-10-19T13:50:12;10.02;;;7.90;;
45420;SDS011;55462;47.042;8.292;2023-10-19T13:52:38;8.65;;;7.82;;
45420;SDS011;55462;47.042;8.292;2023-10-19T13:55:04;8.75;;;7.05;;
45420;SDS011;55462;47.042;8.292;2023-10-19T13:57:32;6.78;;;5.93;;
45420;SDS011;55462;47.042;8.292;2023-10-19T13:59:58;6.45;;;4.30;;
45420;SDS011;55462;47.042;8.292;2023-10-19T14:02:23;6.32;;;5.72;;
45420;SDS011;55462;47.042;8.292;2023-10-19T14:04:49;5.93;;;5.30;;
45420;SDS011;55462;47.042;8.292;2023-10-19T14:07:16;7.00;;;4.47;;
45420;SDS011;55462;47.042;8.292;2023-10-19T14:09:42;6.53;;;5.90;;
45420;SDS011;55462;47.042;8.292;2023-10-19T14:12:07;6.32;;;5.75;;
45420;SDS011;55462;47.042;8.292;2023-10-19T14:14:33;6.97;;;6.22;;
45420;SDS011;55462;47.042;8.292;2023-10-19T14:16:59;5.93;;;5.43;;
45420;SDS011;55462;47.042;8.292;2023-10-19T14:19:25;6.72;;;6.10;;
45420;SDS011;55462;47.042;8.292;2023-10-19T14:21:51;6.55;;;5.30;;
45420;SDS011;55462;47.042;8.292;2023-10-19T14:24:16;7.00;;;5.47;;
45420;SDS011;55462;47.042;8.292;2023-10-19T14:26:43;4.90;;;4.50;;
45420;SDS011;55462;47.042;8.292;2023-10-19T14:29:11;7.07;;;4.00;;
45420;SDS011;55462;47.042;8.292;2023-10-19T14:31:37;5.72;;;5.25;;
45420;SDS011;55462;47.042;8.292;2023-10-19T14:34:03;5.65;;;5.10;;
45420;SDS011;55462;47.042;8.292;2023-10-19T14:36:29;8.13;;;5.45;;
45420;SDS011;55462;47.042;8.292;2023-10-19T14:38:54;5.35;;;4.80;;